International Skating Union - Official Site

ISU Junior World Cup Berlin
November 28-29, 2015

Draw | Lap Times | Index | World Cup

Referee: Daniel  CABELDUC  (SWE)
Starter: Stefan  HERRMANN  (GER)
StartTime: EndTime: Air Temp: Ice Temp: Humidity:
15:30 13,8℃ -5,5℃ 30,8%
Result Mass Start Men
Rankings as of Nov 29 2015 4:05PM
Rank: No.: Name: Nation: Time: Behind: Points:
1 58 Min-Seok  Kim KOR KOR 5:05.55 100
2 61 Marcel  Bosker NED NED 5:05.77 0.22 80
3 45 Kota  Kikuchi JPN JPN 5:06.18 0.63 70
4 19 Oliver  Lindenskov DEN DEN 5:21.22 15.67 60
5 41 Jeffrey  Rosanelli ITA ITA 5:24.75 19.20 50
6 10 Aliaksei  Kirpichnik BLR BLR 5:46.91 41.36 44
7 67 Allan Dahl  Johansson NOR NOR 5:06.46 0.91 40
8 47 Takuzo  Ohtake JPN JPN 5:06.58 1.03 36
9 55 Dmitriy  Morozov KAZ KAZ 5:06.85 1.30 32
10 33 Jeremias  Marx GER GER 5:06.99 1.44 28
11 20 Philip  Due-Schmidt DEN DEN 5:07.48 1.93 24
12 2 Mathias  Hauer AUT AUT 5:08.55 3.00 20
13 7 Ignat  Golovatsiuk BLR BLR 5:10.97 5.42 18
14 86 Egor  Safonov RUS RUS 5:12.27 6.72 16
15 65 Marius  Bratli NOR NOR 5:13.74 8.19 14
15 54 Artyom  Krikonov KAZ KAZ 5:13.74 8.19 14
17 77 Jan  Swiatek POL POL 5:14.04 8.49 10
18 35 Paul  Tonat GER GER 5:15.05 9.50 8
19 17 Jakub  Kopriva CZE CZE 5:15.07 9.52 6
20 26 Tuomas  Rahnasto FIN FIN 5:15.46 9.91 5
21 14 Hui  Fan CHN CHN 5:19.95 14.40 4
22 15 Jiagi  Yin CHN CHN 5:21.98 16.43 3
23 89 Artem  Zolotarev RUS RUS 5:38.20 32.65 2
24 21 Kaspar  Kaljuvee EST EST 5:38.71 33.16 1
25 92 Jacub  Klembara SVK SVK 5:46.46 40.91 0
26 74 Mateusz  Owczarek POL POL 5:42.13 36.58 0
27 63 Tom  Kant NED NED DQ 0
28 91 Oliver  Grob SUI SUI 3:29.11 -96.44 0